sensor_id;sensor_type;location;lat;lon;timestamp;temperature;humidity
3051;DHT22;1535;51.098;6.414;2023-12-28T00:00:22;10.00;99.90
3051;DHT22;1535;51.098;6.414;2023-12-28T00:02:49;9.90;99.90
3051;DHT22;1535;51.098;6.414;2023-12-28T00:05:18;9.80;99.90
3051;DHT22;1535;51.098;6.414;2023-12-28T00:07:45;9.80;99.90
3051;DHT22;1535;51.098;6.414;2023-12-28T00:10:12;9.80;99.90
3051;DHT22;1535;51.098;6.414;2023-12-28T00:12:39;9.80;99.90
3051;DHT22;1535;51.098;6.414;2023-12-28T00:15:06;9.70;99.90
3051;DHT22;1535;51.098;6.414;2023-12-28T00:17:33;9.70;99.90
3051;DHT22;1535;51.098;6.414;2023-12-28T00:20:00;9.70;99.90
3051;DHT22;1535;51.098;6.414;2023-12-28T00:22:28;9.70;99.90
3051;DHT22;1535;51.098;6.414;2023-12-28T00:24:55;9.60;99.90
3051;DHT22;1535;51.098;6.414;2023-12-28T00:27:22;9.70;99.90
3051;DHT22;1535;51.098;6.414;2023-12-28T00:29:48;9.70;99.90
3051;DHT22;1535;51.098;6.414;2023-12-28T00:32:15;9.70;99.90
3051;DHT22;1535;51.098;6.414;2023-12-28T00:34:43;9.70;99.90
3051;DHT22;1535;51.098;6.414;2023-12-28T00:37:09;9.70;99.90
3051;DHT22;1535;51.098;6.414;2023-12-28T00:39:37;9.70;99.90
3051;DHT22;1535;51.098;6.414;2023-12-28T00:42:06;9.70;99.90
3051;DHT22;1535;51.098;6.414;2023-12-28T00:44:33;9.70;99.90
3051;DHT22;1535;51.098;6.414;2023-12-28T00:47:00;9.80;99.90
3051;DHT22;1535;51.098;6.414;2023-12-28T00:49:27;9.80;99.90
3051;DHT22;1535;51.098;6.414;2023-12-28T00:51:53;9.80;99.90
3051;DHT22;1535;51.098;6.414;2023-12-28T00:54:21;9.90;99.90
3051;DHT22;1535;51.098;6.414;2023-12-28T00:56:49;9.90;99.90
3051;DHT22;1535;51.098;6.414;2023-12-28T00:59:16;9.90;99.90
3051;DHT22;1535;51.098;6.414;2023-12-28T01:01:43;9.90;99.90
3051;DHT22;1535;51.098;6.414;2023-12-28T01:04:10;9.90;99.90
3051;DHT22;1535;51.098;6.414;2023-12-28T01:06:37;9.90;99.90
3051;DHT22;1535;51.098;6.414;2023-12-28T01:09:06;9.90;99.90
3051;DHT22;1535;51.098;6.414;2023-12-28T01:11:33;9.90;99.90
3051;DHT22;1535;51.098;6.414;2023-12-28T01:14:01;10.00;99.90
3051;DHT22;1535;51.098;6.414;2023-12-28T01:16:30;10.00;99.90
3051;DHT22;1535;51.098;6.414;2023-12-28T01:18:56;10.00;99.90
3051;DHT22;1535;51.098;6.414;2023-12-28T01:21:24;10.00;99.90
3051;DHT22;1535;51.098;6.414;2023-12-28T01:23:51;10.00;99.90
3051;DHT22;1535;51.098;6.414;2023-12-28T01:26:17;10.00;99.90
3051;DHT22;1535;51.098;6.414;2023-12-28T01:28:44;9.90;99.90
3051;DHT22;1535;51.098;6.414;2023-12-28T01:31:12;9.90;99.90
3051;DHT22;1535;51.098;6.414;2023-12-28T01:33:39;10.00;99.90
3051;DHT22;1535;51.098;6.414;2023-12-28T01:36:17;10.00;99.90
3051;DHT22;1535;51.098;6.414;2023-12-28T01:38:44;10.10;99.90
3051;DHT22;1535;51.098;6.414;2023-12-28T01:41:11;10.10;99.90
3051;DHT22;1535;51.098;6.414;2023-12-28T01:43:39;10.10;99.90
3051;DHT22;1535;51.098;6.414;2023-12-28T01:46:06;10.10;99.90
3051;DHT22;1535;51.098;6.414;2023-12-28T01:48:37;10.10;99.90
3051;DHT22;1535;51.098;6.414;2023-12-28T01:51:04;10.10;99.90
3051;DHT22;1535;51.098;6.414;2023-12-28T01:53:31;10.10;99.90
3051;DHT22;1535;51.098;6.414;2023-12-28T01:55:59;10.10;99.90
3051;DHT22;1535;51.098;6.414;2023-12-28T01:58:27;10.10;99.90
3051;DHT22;1535;51.098;6.414;2023-12-28T02:00:56;10.10;99.90
3051;DHT22;1535;51.098;6.414;2023-12-28T02:03:23;10.10;99.90
3051;DHT22;1535;51.098;6.414;2023-12-28T02:05:52;10.20;99.90
3051;DHT22;1535;51.098;6.414;2023-12-28T02:08:19;10.20;99.90
3051;DHT22;1535;51.098;6.414;2023-12-28T02:10:46;10.10;99.90
3051;DHT22;1535;51.098;6.414;2023-12-28T02:13:12;10.10;99.90
3051;DHT22;1535;51.098;6.414;2023-12-28T02:15:40;10.10;99.90
3051;DHT22;1535;51.098;6.414;2023-12-28T02:18:12;10.10;99.90
3051;DHT22;1535;51.098;6.414;2023-12-28T02:20:39;10.10;99.90
3051;DHT22;1535;51.098;6.414;2023-12-28T02:23:08;10.10;99.90
3051;DHT22;1535;51.098;6.414;2023-12-28T02:25:39;10.10;99.90
3051;DHT22;1535;51.098;6.414;2023-12-28T02:28:06;10.10;99.90
3051;DHT22;1535;51.098;6.414;2023-12-28T02:30:34;10.10;99.90
3051;DHT22;1535;51.098;6.414;2023-12-28T02:33:07;10.10;99.90
3051;DHT22;1535;51.098;6.414;2023-12-28T02:35:39;10.00;99.90
3051;DHT22;1535;51.098;6.414;2023-12-28T02:38:10;10.00;99.90
3051;DHT22;1535;51.098;6.414;2023-12-28T02:40:40;10.00;99.90
3051;DHT22;1535;51.098;6.414;2023-12-28T02:43:09;9.90;99.90
3051;DHT22;1535;51.098;6.414;2023-12-28T02:45:37;9.90;99.90
3051;DHT22;1535;51.098;6.414;2023-12-28T02:48:05;9.90;99.90
3051;DHT22;1535;51.098;6.414;2023-12-28T02:50:33;9.90;99.90
3051;DHT22;1535;51.098;6.414;2023-12-28T02:53:00;9.80;99.90
3051;DHT22;1535;51.098;6.414;2023-12-28T02:55:27;9.80;99.90
3051;DHT22;1535;51.098;6.414;2023-12-28T02:57:56;9.70;99.90
3051;DHT22;1535;51.098;6.414;2023-12-28T03:00:25;9.70;99.90
3051;DHT22;1535;51.098;6.414;2023-12-28T03:02:52;9.70;99.90
3051;DHT22;1535;51.098;6.414;2023-12-28T03:05:19;9.70;99.90
3051;DHT22;1535;51.098;6.414;2023-12-28T03:07:46;9.70;99.90
3051;DHT22;1535;51.098;6.414;2023-12-28T03:10:13;9.70;99.90
3051;DHT22;1535;51.098;6.414;2023-12-28T03:12:39;9.70;99.90
3051;DHT22;1535;51.098;6.414;2023-12-28T03:15:08;9.60;99.90
3051;DHT22;1535;51.098;6.414;2023-12-28T03:17:36;9.70;99.90
3051;DHT22;1535;51.098;6.414;2023-12-28T03:20:04;9.70;99.90
3051;DHT22;1535;51.098;6.414;2023-12-28T03:22:31;9.60;99.90
3051;DHT22;1535;51.098;6.414;2023-12-28T03:24:59;9.60;99.90
3051;DHT22;1535;51.098;6.414;2023-12-28T03:27:26;9.60;99.90
3051;DHT22;1535;51.098;6.414;2023-12-28T03:29:53;9.60;99.90
3051;DHT22;1535;51.098;6.414;2023-12-28T03:32:22;9.60;99.90
3051;DHT22;1535;51.098;6.414;2023-12-28T03:34:49;9.60;99.90
3051;DHT22;1535;51.098;6.414;2023-12-28T03:37:17;9.60;99.90
3051;DHT22;1535;51.098;6.414;2023-12-28T03:39:44;9.60;99.90
3051;DHT22;1535;51.098;6.414;2023-12-28T03:42:12;9.60;99.90
3051;DHT22;1535;51.098;6.414;2023-12-28T03:44:39;9.60;99.90
3051;DHT22;1535;51.098;6.414;2023-12-28T03:47:07;9.60;99.90
3051;DHT22;1535;51.098;6.414;2023-12-28T03:49:36;9.60;99.90
3051;DHT22;1535;51.098;6.414;2023-12-28T03:52:02;9.60;99.90
3051;DHT22;1535;51.098;6.414;2023-12-28T03:54:29;9.50;99.90
3051;DHT22;1535;51.098;6.414;2023-12-28T03:56:56;9.50;99.90
3051;DHT22;1535;51.098;6.414;2023-12-28T03:59:24;9.50;99.90
3051;DHT22;1535;51.098;6.414;2023-12-28T04:01:51;9.50;99.90
3051;DHT22;1535;51.098;6.414;2023-12-28T04:04:18;9.50;99.90
3051;DHT22;1535;51.098;6.414;2023-12-28T04:06:46;9.50;99.90
3051;DHT22;1535;51.098;6.414;2023-12-28T04:09:13;9.50;99.90
3051;DHT22;1535;51.098;6.414;2023-12-28T04:11:40;9.50;99.90
3051;DHT22;1535;51.098;6.414;2023-12-28T04:14:08;9.50;99.90
3051;DHT22;1535;51.098;6.414;2023-12-28T04:16:35;9.50;99.90
3051;DHT22;1535;51.098;6.414;2023-12-28T04:19:02;9.50;99.90
3051;DHT22;1535;51.098;6.414;2023-12-28T04:21:29;9.50;99.90
3051;DHT22;1535;51.098;6.414;2023-12-28T04:23:57;9.50;99.90
3051;DHT22;1535;51.098;6.414;2023-12-28T04:26:24;9.50;99.90
3051;DHT22;1535;51.098;6.414;2023-12-28T04:28:51;9.50;99.90
3051;DHT22;1535;51.098;6.414;2023-12-28T04:31:18;9.50;99.90
3051;DHT22;1535;51.098;6.414;2023-12-28T04:33:45;9.50;99.90
3051;DHT22;1535;51.098;6.414;2023-12-28T04:36:12;9.50;99.90
3051;DHT22;1535;51.098;6.414;2023-12-28T04:38:39;9.40;99.90
3051;DHT22;1535;51.098;6.414;2023-12-28T04:41:09;9.40;99.90
3051;DHT22;1535;51.098;6.414;2023-12-28T04:43:36;9.40;99.90
3051;DHT22;1535;51.098;6.414;2023-12-28T04:46:03;9.40;99.90
3051;DHT22;1535;51.098;6.414;2023-12-28T04:48:29;9.40;99.90
3051;DHT22;1535;51.098;6.414;2023-12-28T04:50:57;9.40;99.90
3051;DHT22;1535;51.098;6.414;2023-12-28T04:53:24;9.50;99.90
3051;DHT22;1535;51.098;6.414;2023-12-28T04:55:51;9.60;99.90
3051;DHT22;1535;51.098;6.414;2023-12-28T04:58:19;9.60;99.90
3051;DHT22;1535;51.098;6.414;2023-12-28T05:00:46;9.70;99.90
3051;DHT22;1535;51.098;6.414;2023-12-28T05:03:14;9.70;99.90
3051;DHT22;1535;51.098;6.414;2023-12-28T05:05:40;9.80;99.90
3051;DHT22;1535;51.098;6.414;2023-12-28T05:08:07;9.90;99.90
3051;DHT22;1535;51.098;6.414;2023-12-28T05:10:34;9.80;99.90
3051;DHT22;1535;51.098;6.414;2023-12-28T05:13:01;9.90;99.90
3051;DHT22;1535;51.098;6.414;2023-12-28T05:15:30;9.90;99.90
3051;DHT22;1535;51.098;6.414;2023-12-28T05:17:57;10.00;99.90
3051;DHT22;1535;51.098;6.414;2023-12-28T05:20:24;10.00;99.90
3051;DHT22;1535;51.098;6.414;2023-12-28T05:22:50;10.00;99.90
3051;DHT22;1535;51.098;6.414;2023-12-28T05:25:17;10.10;99.90
3051;DHT22;1535;51.098;6.414;2023-12-28T05:27:44;10.10;99.90
3051;DHT22;1535;51.098;6.414;2023-12-28T05:30:12;10.10;99.90
3051;DHT22;1535;51.098;6.414;2023-12-28T05:32:40;10.10;99.90
3051;DHT22;1535;51.098;6.414;2023-12-28T05:35:07;10.20;99.90
3051;DHT22;1535;51.098;6.414;2023-12-28T05:37:34;10.20;99.90
3051;DHT22;1535;51.098;6.414;2023-12-28T05:40:01;10.20;99.90
3051;DHT22;1535;51.098;6.414;2023-12-28T05:42:28;10.20;99.90
3051;DHT22;1535;51.098;6.414;2023-12-28T05:44:56;10.20;99.90
3051;DHT22;1535;51.098;6.414;2023-12-28T05:47:22;10.10;99.90
3051;DHT22;1535;51.098;6.414;2023-12-28T05:49:50;10.20;99.90
3051;DHT22;1535;51.098;6.414;2023-12-28T05:52:18;10.20;99.90
3051;DHT22;1535;51.098;6.414;2023-12-28T05:54:45;10.20;99.90
3051;DHT22;1535;51.098;6.414;2023-12-28T05:57:14;10.30;99.90
3051;DHT22;1535;51.098;6.414;2023-12-28T05:59:42;10.30;99.90
3051;DHT22;1535;51.098;6.414;2023-12-28T06:02:09;10.30;99.90
3051;DHT22;1535;51.098;6.414;2023-12-28T06:04:37;10.30;99.90
3051;DHT22;1535;51.098;6.414;2023-12-28T06:07:05;10.30;99.90
3051;DHT22;1535;51.098;6.414;2023-12-28T06:09:32;10.30;99.90
3051;DHT22;1535;51.098;6.414;2023-12-28T06:11:59;10.30;99.90
3051;DHT22;1535;51.098;6.414;2023-12-28T06:14:26;10.30;99.90
3051;DHT22;1535;51.098;6.414;2023-12-28T06:16:53;10.30;99.90
3051;DHT22;1535;51.098;6.414;2023-12-28T06:19:20;10.30;99.90
3051;DHT22;1535;51.098;6.414;2023-12-28T06:21:48;10.30;99.90
3051;DHT22;1535;51.098;6.414;2023-12-28T06:24:16;10.30;99.90
3051;DHT22;1535;51.098;6.414;2023-12-28T06:26:44;10.30;99.90
3051;DHT22;1535;51.098;6.414;2023-12-28T06:29:11;10.40;99.90
3051;DHT22;1535;51.098;6.414;2023-12-28T06:31:38;10.40;99.90
3051;DHT22;1535;51.098;6.414;2023-12-28T06:34:05;10.30;99.90
3051;DHT22;1535;51.098;6.414;2023-12-28T06:36:32;10.40;99.90
3051;DHT22;1535;51.098;6.414;2023-12-28T06:38:59;10.30;99.90
3051;DHT22;1535;51.098;6.414;2023-12-28T06:41:28;10.30;99.90
3051;DHT22;1535;51.098;6.414;2023-12-28T06:43:55;10.30;99.90
3051;DHT22;1535;51.098;6.414;2023-12-28T06:46:22;10.40;99.90
3051;DHT22;1535;51.098;6.414;2023-12-28T06:48:49;10.30;99.90
3051;DHT22;1535;51.098;6.414;2023-12-28T06:51:16;10.30;99.90
3051;DHT22;1535;51.098;6.414;2023-12-28T06:53:46;10.30;99.90
3051;DHT22;1535;51.098;6.414;2023-12-28T06:56:12;10.30;99.90
3051;DHT22;1535;51.098;6.414;2023-12-28T06:58:41;10.30;99.90
3051;DHT22;1535;51.098;6.414;2023-12-28T07:01:08;10.30;99.90
3051;DHT22;1535;51.098;6.414;2023-12-28T07:03:36;10.30;99.90
3051;DHT22;1535;51.098;6.414;2023-12-28T07:06:03;10.20;99.90
3051;DHT22;1535;51.098;6.414;2023-12-28T07:08:30;10.30;99.90
3051;DHT22;1535;51.098;6.414;2023-12-28T07:10:56;10.20;99.90
3051;DHT22;1535;51.098;6.414;2023-12-28T07:13:23;10.30;99.90
3051;DHT22;1535;51.098;6.414;2023-12-28T07:15:52;10.30;99.90
3051;DHT22;1535;51.098;6.414;2023-12-28T07:18:19;10.30;99.90
3051;DHT22;1535;51.098;6.414;2023-12-28T07:20:46;10.30;99.90
3051;DHT22;1535;51.098;6.414;2023-12-28T07:23:14;10.30;99.90
3051;DHT22;1535;51.098;6.414;2023-12-28T07:25:42;10.30;99.90
3051;DHT22;1535;51.098;6.414;2023-12-28T07:28:08;10.30;99.90
3051;DHT22;1535;51.098;6.414;2023-12-28T07:30:36;10.30;99.90
3051;DHT22;1535;51.098;6.414;2023-12-28T07:33:05;10.20;99.90
3051;DHT22;1535;51.098;6.414;2023-12-28T07:35:31;10.20;99.90
3051;DHT22;1535;51.098;6.414;2023-12-28T07:37:59;10.20;99.90
3051;DHT22;1535;51.098;6.414;2023-12-28T07:40:25;10.20;99.90
3051;DHT22;1535;51.098;6.414;2023-12-28T07:42:53;10.10;99.90
3051;DHT22;1535;51.098;6.414;2023-12-28T07:45:20;10.20;99.90
3051;DHT22;1535;51.098;6.414;2023-12-28T07:47:49;10.10;99.90
3051;DHT22;1535;51.098;6.414;2023-12-28T07:50:17;10.10;99.90
3051;DHT22;1535;51.098;6.414;2023-12-28T07:52:45;10.10;99.90
3051;DHT22;1535;51.098;6.414;2023-12-28T07:55:12;10.10;99.90
3051;DHT22;1535;51.098;6.414;2023-12-28T07:57:39;10.00;99.90
3051;DHT22;1535;51.098;6.414;2023-12-28T08:00:07;10.10;99.90
3051;DHT22;1535;51.098;6.414;2023-12-28T08:02:34;10.00;99.90
3051;DHT22;1535;51.098;6.414;2023-12-28T08:05:01;10.10;99.90
3051;DHT22;1535;51.098;6.414;2023-12-28T08:07:30;10.00;99.90
3051;DHT22;1535;51.098;6.414;2023-12-28T08:09:57;10.10;99.90
3051;DHT22;1535;51.098;6.414;2023-12-28T08:12:24;10.10;99.90
3051;DHT22;1535;51.098;6.414;2023-12-28T08:14:52;10.00;99.90
3051;DHT22;1535;51.098;6.414;2023-12-28T08:17:19;10.00;99.90
3051;DHT22;1535;51.098;6.414;2023-12-28T08:19:46;9.90;99.90
3051;DHT22;1535;51.098;6.414;2023-12-28T08:22:13;9.90;99.90
3051;DHT22;1535;51.098;6.414;2023-12-28T08:24:42;9.90;99.90
3051;DHT22;1535;51.098;6.414;2023-12-28T08:27:08;9.90;99.90
3051;DHT22;1535;51.098;6.414;2023-12-28T08:29:35;9.90;99.90
3051;DHT22;1535;51.098;6.414;2023-12-28T08:32:03;9.80;99.90
3051;DHT22;1535;51.098;6.414;2023-12-28T08:34:30;9.80;99.90
3051;DHT22;1535;51.098;6.414;2023-12-28T08:36:57;9.80;99.90
3051;DHT22;1535;51.098;6.414;2023-12-28T08:39:24;9.80;99.90
3051;DHT22;1535;51.098;6.414;2023-12-28T08:41:53;9.80;99.90
3051;DHT22;1535;51.098;6.414;2023-12-28T08:44:20;9.80;99.90
3051;DHT22;1535;51.098;6.414;2023-12-28T08:46:47;9.80;99.90
3051;DHT22;1535;51.098;6.414;2023-12-28T08:49:13;9.90;99.90
3051;DHT22;1535;51.098;6.414;2023-12-28T08:51:41;9.90;99.90
3051;DHT22;1535;51.098;6.414;2023-12-28T08:54:08;10.00;99.90
3051;DHT22;1535;51.098;6.414;2023-12-28T08:56:36;10.00;99.90
3051;DHT22;1535;51.098;6.414;2023-12-28T08:59:04;10.00;99.90
3051;DHT22;1535;51.098;6.414;2023-12-28T09:01:31;10.10;99.90
3051;DHT22;1535;51.098;6.414;2023-12-28T09:03:58;10.10;99.90
3051;DHT22;1535;51.098;6.414;2023-12-28T09:06:26;10.10;99.90
3051;DHT22;1535;51.098;6.414;2023-12-28T09:08:53;10.20;99.90
3051;DHT22;1535;51.098;6.414;2023-12-28T09:11:20;10.20;99.90
3051;DHT22;1535;51.098;6.414;2023-12-28T09:13:48;10.20;99.90
3051;DHT22;1535;51.098;6.414;2023-12-28T09:16:17;10.30;99.90
3051;DHT22;1535;51.098;6.414;2023-12-28T09:18:44;10.30;99.90
3051;DHT22;1535;51.098;6.414;2023-12-28T09:21:11;10.40;99.90
3051;DHT22;1535;51.098;6.414;2023-12-28T09:23:39;10.40;99.90
3051;DHT22;1535;51.098;6.414;2023-12-28T09:26:07;10.50;99.90
3051;DHT22;1535;51.098;6.414;2023-12-28T09:28:34;10.50;99.90
3051;DHT22;1535;51.098;6.414;2023-12-28T09:31:02;10.60;99.90
3051;DHT22;1535;51.098;6.414;2023-12-28T09:33:31;10.60;99.90
3051;DHT22;1535;51.098;6.414;2023-12-28T09:35:58;10.60;99.90
3051;DHT22;1535;51.098;6.414;2023-12-28T09:38:26;10.70;99.90
3051;DHT22;1535;51.098;6.414;2023-12-28T09:40:54;10.80;99.90
3051;DHT22;1535;51.098;6.414;2023-12-28T09:43:22;10.80;99.90
3051;DHT22;1535;51.098;6.414;2023-12-28T09:45:51;10.80;99.90
3051;DHT22;1535;51.098;6.414;2023-12-28T09:48:20;10.80;99.90
3051;DHT22;1535;51.098;6.414;2023-12-28T09:50:51;10.80;99.90
3051;DHT22;1535;51.098;6.414;2023-12-28T09:53:20;10.80;99.90
3051;DHT22;1535;51.098;6.414;2023-12-28T09:55:49;10.80;99.90
3051;DHT22;1535;51.098;6.414;2023-12-28T09:58:18;10.80;99.90
3051;DHT22;1535;51.098;6.414;2023-12-28T10:00:47;10.90;99.90
3051;DHT22;1535;51.098;6.414;2023-12-28T10:03:15;10.90;99.90
3051;DHT22;1535;51.098;6.414;2023-12-28T10:05:43;11.00;99.90
3051;DHT22;1535;51.098;6.414;2023-12-28T10:08:13;11.00;99.90
3051;DHT22;1535;51.098;6.414;2023-12-28T10:10:40;11.00;99.90
3051;DHT22;1535;51.098;6.414;2023-12-28T10:13:07;11.10;99.90
3051;DHT22;1535;51.098;6.414;2023-12-28T10:15:35;11.00;99.90
3051;DHT22;1535;51.098;6.414;2023-12-28T10:18:03;11.00;99.90
3051;DHT22;1535;51.098;6.414;2023-12-28T10:20:31;11.10;99.90
3051;DHT22;1535;51.098;6.414;2023-12-28T10:22:58;11.10;99.90
3051;DHT22;1535;51.098;6.414;2023-12-28T10:25:26;11.30;99.90
3051;DHT22;1535;51.098;6.414;2023-12-28T10:27:53;11.50;99.90
3051;DHT22;1535;51.098;6.414;2023-12-28T10:30:21;11.70;99.90
3051;DHT22;1535;51.098;6.414;2023-12-28T10:33:04;11.80;99.90
3051;DHT22;1535;51.098;6.414;2023-12-28T10:35:31;11.90;99.90
3051;DHT22;1535;51.098;6.414;2023-12-28T10:38:00;12.00;99.90
3051;DHT22;1535;51.098;6.414;2023-12-28T10:40:31;12.00;99.90
3051;DHT22;1535;51.098;6.414;2023-12-28T10:42:59;12.00;99.90
3051;DHT22;1535;51.098;6.414;2023-12-28T10:45:31;11.90;99.90
3051;DHT22;1535;51.098;6.414;2023-12-28T10:48:05;12.00;99.90
3051;DHT22;1535;51.098;6.414;2023-12-28T10:50:39;12.00;99.90
3051;DHT22;1535;51.098;6.414;2023-12-28T10:53:28;12.00;99.90
3051;DHT22;1535;51.098;6.414;2023-12-28T10:56:16;12.10;99.90
3051;DHT22;1535;51.098;6.414;2023-12-28T10:58:48;12.00;99.90
3051;DHT22;1535;51.098;6.414;2023-12-28T11:01:21;11.90;99.90
3051;DHT22;1535;51.098;6.414;2023-12-28T11:03:55;11.90;99.90
3051;DHT22;1535;51.098;6.414;2023-12-28T11:06:26;12.00;99.90
3051;DHT22;1535;51.098;6.414;2023-12-28T11:08:54;12.10;99.90
3051;DHT22;1535;51.098;6.414;2023-12-28T11:11:25;12.00;99.90
3051;DHT22;1535;51.098;6.414;2023-12-28T11:13:54;12.20;99.90
3051;DHT22;1535;51.098;6.414;2023-12-28T11:16:22;12.30;99.90
3051;DHT22;1535;51.098;6.414;2023-12-28T11:18:49;12.10;99.90
3051;DHT22;1535;51.098;6.414;2023-12-28T11:21:17;12.10;99.90
3051;DHT22;1535;51.098;6.414;2023-12-28T11:23:46;12.00;99.90
3051;DHT22;1535;51.098;6.414;2023-12-28T11:26:17;12.00;99.90
3051;DHT22;1535;51.098;6.414;2023-12-28T11:28:45;12.10;99.90
3051;DHT22;1535;51.098;6.414;2023-12-28T11:31:14;12.00;99.90
3051;DHT22;1535;51.098;6.414;2023-12-28T11:33:45;12.10;99.90
3051;DHT22;1535;51.098;6.414;2023-12-28T11:36:20;12.30;99.90
3051;DHT22;1535;51.098;6.414;2023-12-28T11:38:50;12.30;99.90
3051;DHT22;1535;51.098;6.414;2023-12-28T11:41:21;12.40;99.90
3051;DHT22;1535;51.098;6.414;2023-12-28T11:43:53;12.50;99.90
3051;DHT22;1535;51.098;6.414;2023-12-28T11:46:20;12.50;99.90
3051;DHT22;1535;51.098;6.414;2023-12-28T11:48:47;12.60;99.90
3051;DHT22;1535;51.098;6.414;2023-12-28T11:51:14;12.60;99.90
3051;DHT22;1535;51.098;6.414;2023-12-28T11:53:43;12.40;99.90
3051;DHT22;1535;51.098;6.414;2023-12-28T11:56:15;12.40;99.90
3051;DHT22;1535;51.098;6.414;2023-12-28T11:58:42;12.60;99.90
3051;DHT22;1535;51.098;6.414;2023-12-28T12:01:12;12.70;99.90
3051;DHT22;1535;51.098;6.414;2023-12-28T12:03:39;12.80;99.90
3051;DHT22;1535;51.098;6.414;2023-12-28T12:06:07;12.80;99.90
3051;DHT22;1535;51.098;6.414;2023-12-28T12:08:33;12.80;99.90
3051;DHT22;1535;51.098;6.414;2023-12-28T12:11:01;12.90;99.90
3051;DHT22;1535;51.098;6.414;2023-12-28T12:13:29;13.20;99.90
3051;DHT22;1535;51.098;6.414;2023-12-28T12:15:57;13.00;99.90
3051;DHT22;1535;51.098;6.414;2023-12-28T12:18:26;12.90;99.90
3051;DHT22;1535;51.098;6.414;2023-12-28T12:20:53;12.80;99.90
3051;DHT22;1535;51.098;6.414;2023-12-28T12:23:19;12.90;99.90
3051;DHT22;1535;51.098;6.414;2023-12-28T12:25:46;12.80;99.90
3051;DHT22;1535;51.098;6.414;2023-12-28T12:28:13;12.80;99.90
3051;DHT22;1535;51.098;6.414;2023-12-28T12:30:40;12.70;99.90
3051;DHT22;1535;51.098;6.414;2023-12-28T12:33:16;12.70;99.90
3051;DHT22;1535;51.098;6.414;2023-12-28T12:35:45;12.90;99.90
3051;DHT22;1535;51.098;6.414;2023-12-28T12:38:12;12.80;99.90
3051;DHT22;1535;51.098;6.414;2023-12-28T12:40:39;12.90;99.90
3051;DHT22;1535;51.098;6.414;2023-12-28T12:43:06;12.70;99.90
3051;DHT22;1535;51.098;6.414;2023-12-28T12:45:35;12.70;99.90
3051;DHT22;1535;51.098;6.414;2023-12-28T12:48:02;12.70;99.90
3051;DHT22;1535;51.098;6.414;2023-12-28T12:50:30;12.80;99.90
3051;DHT22;1535;51.098;6.414;2023-12-28T12:53:00;12.70;99.90
3051;DHT22;1535;51.098;6.414;2023-12-28T12:55:28;12.60;99.90
3051;DHT22;1535;51.098;6.414;2023-12-28T12:57:56;12.70;99.90
3051;DHT22;1535;51.098;6.414;2023-12-28T13:00:24;12.60;99.90
3051;DHT22;1535;51.098;6.414;2023-12-28T13:02:51;12.60;99.90
3051;DHT22;1535;51.098;6.414;2023-12-28T13:05:19;12.70;99.90
3051;DHT22;1535;51.098;6.414;2023-12-28T13:07:46;12.60;99.90
3051;DHT22;1535;51.098;6.414;2023-12-28T13:10:15;12.60;99.90
3051;DHT22;1535;51.098;6.414;2023-12-28T13:12:42;12.50;99.90
3051;DHT22;1535;51.098;6.414;2023-12-28T13:15:09;12.50;99.90
3051;DHT22;1535;51.098;6.414;2023-12-28T13:17:36;12.60;99.90
3051;DHT22;1535;51.098;6.414;2023-12-28T13:20:03;12.60;99.90
3051;DHT22;1535;51.098;6.414;2023-12-28T13:22:31;12.60;99.90
3051;DHT22;1535;51.098;6.414;2023-12-28T13:24:58;12.60;99.90
3051;DHT22;1535;51.098;6.414;2023-12-28T13:27:27;12.50;99.90
3051;DHT22;1535;51.098;6.414;2023-12-28T13:29:54;12.40;99.90
3051;DHT22;1535;51.098;6.414;2023-12-28T13:32:21;12.30;99.90
3051;DHT22;1535;51.098;6.414;2023-12-28T13:34:48;12.30;99.90
3051;DHT22;1535;51.098;6.414;2023-12-28T13:37:16;12.50;99.90
3051;DHT22;1535;51.098;6.414;2023-12-28T13:39:43;12.50;99.90
3051;DHT22;1535;51.098;6.414;2023-12-28T13:42:10;12.40;99.90
3051;DHT22;1535;51.098;6.414;2023-12-28T13:44:38;12.40;99.90
3051;DHT22;1535;51.098;6.414;2023-12-28T13:47:05;12.30;99.90
3051;DHT22;1535;51.098;6.414;2023-12-28T13:49:32;12.30;99.90
3051;DHT22;1535;51.098;6.414;2023-12-28T13:52:00;12.40;99.90
3051;DHT22;1535;51.098;6.414;2023-12-28T13:54:27;12.40;99.90
3051;DHT22;1535;51.098;6.414;2023-12-28T13:56:54;12.40;99.90
3051;DHT22;1535;51.098;6.414;2023-12-28T13:59:24;12.40;99.90
3051;DHT22;1535;51.098;6.414;2023-12-28T14:01:52;12.30;99.90
3051;DHT22;1535;51.098;6.414;2023-12-28T14:04:19;12.30;99.90
3051;DHT22;1535;51.098;6.414;2023-12-28T14:06:46;12.30;99.90
3051;DHT22;1535;51.098;6.414;2023-12-28T14:09:12;12.30;99.90
3051;DHT22;1535;51.098;6.414;2023-12-28T14:11:42;12.20;99.90
3051;DHT22;1535;51.098;6.414;2023-12-28T14:14:09;12.10;99.90
3051;DHT22;1535;51.098;6.414;2023-12-28T14:16:36;12.10;99.90
3051;DHT22;1535;51.098;6.414;2023-12-28T14:19:04;12.10;99.90
3051;DHT22;1535;51.098;6.414;2023-12-28T14:21:35;11.90;99.90
3051;DHT22;1535;51.098;6.414;2023-12-28T14:24:02;11.90;99.90
3051;DHT22;1535;51.098;6.414;2023-12-28T14:26:31;11.90;99.90
3051;DHT22;1535;51.098;6.414;2023-12-28T14:28:59;11.90;99.90
3051;DHT22;1535;51.098;6.414;2023-12-28T14:31:29;11.90;99.90
3051;DHT22;1535;51.098;6.414;2023-12-28T14:33:56;11.80;99.90
3051;DHT22;1535;51.098;6.414;2023-12-28T14:36:27;11.70;99.90
3051;DHT22;1535;51.098;6.414;2023-12-28T14:38:57;11.70;99.90
3051;DHT22;1535;51.098;6.414;2023-12-28T14:41:23;11.70;99.90
3051;DHT22;1535;51.098;6.414;2023-12-28T14:43:50;11.60;99.90
3051;DHT22;1535;51.098;6.414;2023-12-28T14:46:17;11.60;99.90
3051;DHT22;1535;51.098;6.414;2023-12-28T14:48:44;11.60;99.90
3051;DHT22;1535;51.098;6.414;2023-12-28T14:51:12;11.60;99.90
3051;DHT22;1535;51.098;6.414;2023-12-28T14:53:41;11.60;99.90
3051;DHT22;1535;51.098;6.414;2023-12-28T14:56:08;11.50;99.90
3051;DHT22;1535;51.098;6.414;2023-12-28T14:58:36;11.50;99.90
3051;DHT22;1535;51.098;6.414;2023-12-28T15:01:03;11.40;99.90
3051;DHT22;1535;51.098;6.414;2023-12-28T15:03:30;11.30;99.90
3051;DHT22;1535;51.098;6.414;2023-12-28T15:05:57;11.30;99.90
3051;DHT22;1535;51.098;6.414;2023-12-28T15:08:24;11.20;99.90
3051;DHT22;1535;51.098;6.414;2023-12-28T15:10:53;11.20;99.90
3051;DHT22;1535;51.098;6.414;2023-12-28T15:13:21;11.10;99.90
3051;DHT22;1535;51.098;6.414;2023-12-28T15:15:48;11.00;99.90
3051;DHT22;1535;51.098;6.414;2023-12-28T15:18:16;11.00;99.90
3051;DHT22;1535;51.098;6.414;2023-12-28T15:20:44;11.00;99.90
3051;DHT22;1535;51.098;6.414;2023-12-28T15:23:11;11.00;99.90
3051;DHT22;1535;51.098;6.414;2023-12-28T15:25:39;10.90;99.90
3051;DHT22;1535;51.098;6.414;2023-12-28T15:28:07;10.90;99.90
3051;DHT22;1535;51.098;6.414;2023-12-28T15:30:34;10.80;99.90
3051;DHT22;1535;51.098;6.414;2023-12-28T15:33:01;10.80;99.90
3051;DHT22;1535;51.098;6.414;2023-12-28T15:35:28;10.70;99.90
3051;DHT22;1535;51.098;6.414;2023-12-28T15:37:55;10.70;99.90
3051;DHT22;1535;51.098;6.414;2023-12-28T15:40:22;10.60;99.90
3051;DHT22;1535;51.098;6.414;2023-12-28T15:42:50;10.60;99.90
3051;DHT22;1535;51.098;6.414;2023-12-28T15:45:18;10.60;99.90
3051;DHT22;1535;51.098;6.414;2023-12-28T15:47:45;10.60;99.90
3051;DHT22;1535;51.098;6.414;2023-12-28T15:50:12;10.50;99.90
3051;DHT22;1535;51.098;6.414;2023-12-28T15:52:39;10.50;99.90
3051;DHT22;1535;51.098;6.414;2023-12-28T15:55:06;10.50;99.90
3051;DHT22;1535;51.098;6.414;2023-12-28T15:57:33;10.50;99.90
3051;DHT22;1535;51.098;6.414;2023-12-28T16:00:00;10.50;99.90
3051;DHT22;1535;51.098;6.414;2023-12-28T16:02:29;10.40;99.90
3051;DHT22;1535;51.098;6.414;2023-12-28T16:04:56;10.40;99.90
3051;DHT22;1535;51.098;6.414;2023-12-28T16:07:22;10.40;99.90
3051;DHT22;1535;51.098;6.414;2023-12-28T16:09:50;10.30;99.90